createdAt,value
2017-05-24T00:00:24.003Z,17.04
2017-05-24T00:01:23.998Z,16.95
2017-05-24T00:02:23.996Z,16.97
2017-05-24T00:03:23.991Z,16.95
2017-05-24T00:04:23.990Z,17.09
2017-05-24T00:05:23.984Z,17.1
2017-05-24T00:06:23.980Z,17.09
2017-05-24T00:07:23.976Z,17.02
2017-05-24T00:08:23.979Z,17.07
2017-05-24T00:09:23.970Z,17.13
2017-05-24T00:10:23.365Z,17.02
2017-05-24T00:11:23.664Z,17.02
2017-05-24T00:12:23.660Z,17.1
2017-05-24T00:13:23.959Z,17.07
2017-05-24T00:14:23.648Z,17.07
2017-05-24T00:15:23.951Z,17.1
2017-05-24T00:16:23.648Z,16.95
2017-05-24T00:17:23.641Z,16.95
2017-05-24T00:18:23.640Z,17.05
2017-05-24T00:19:23.940Z,16.95
2017-05-24T00:20:23.632Z,17.09
2017-05-24T00:21:23.629Z,16.98
2017-05-24T00:22:23.931Z,16.95
2017-05-24T00:23:23.318Z,17.07
2017-05-24T00:24:23.623Z,17.07
2017-05-24T00:25:23.615Z,17.1
2017-05-24T00:26:23.614Z,17.02
2017-05-24T00:27:23.917Z,17.04
2017-05-24T00:28:23.914Z,16.98
2017-05-24T00:29:23.906Z,17.1
2017-05-24T00:30:23.601Z,17.13
2017-05-24T00:31:23.909Z,17.09
2017-05-24T00:32:23.593Z,17.01
2017-05-24T00:33:23.898Z,17.01
2017-05-24T00:34:23.593Z,17.02
2017-05-24T00:35:23.892Z,17.1
2017-05-24T00:36:23.891Z,17.13
2017-05-24T00:37:23.574Z,16.98
2017-05-24T00:38:23.887Z,16.99
2017-05-24T00:39:23.877Z,17.14
2017-05-24T00:40:23.874Z,17.05
2017-05-24T00:41:23.868Z,17.09
2017-05-24T00:42:23.866Z,17.04
2017-05-24T00:43:23.865Z,17.16
2017-05-24T00:44:23.863Z,17.04
2017-05-24T00:45:23.858Z,17.17
2017-05-24T00:46:23.547Z,17.07
2017-05-24T00:47:23.849Z,17.16
2017-05-24T00:48:23.852Z,17.17
2017-05-24T00:49:23.851Z,17.13
2017-05-24T00:50:23.884Z,17.16
2017-05-24T00:51:23.838Z,17.19
2017-05-24T00:52:23.837Z,17.16
2017-05-24T00:53:23.835Z,17.12
2017-05-24T00:54:23.828Z,17.17
2017-05-24T00:55:23.828Z,17.17
2017-05-24T00:56:23.824Z,17.14
2017-05-24T00:57:23.815Z,17.22
2017-05-24T00:58:23.814Z,17.16
2017-05-24T00:59:23.815Z,17.17
2017-05-24T01:00:23.809Z,17.17
2017-05-24T01:01:23.804Z,17.16
2017-05-24T01:02:23.803Z,17.13
2017-05-24T01:03:23.798Z,17.19
2017-05-24T01:04:23.492Z,17.13
2017-05-24T01:05:23.790Z,17.14
2017-05-24T01:06:23.486Z,17.13
2017-05-24T01:07:23.785Z,17.13
2017-05-24T01:08:23.479Z,17.14
2017-05-24T01:09:23.775Z,17.13
2017-05-24T01:10:23.778Z,17.09
2017-05-24T01:11:23.769Z,17.02
2017-05-24T01:12:23.460Z,17.1
2017-05-24T01:13:23.763Z,17.02
2017-05-24T01:14:23.761Z,17.09
2017-05-24T01:15:23.759Z,17.02
2017-05-24T01:16:23.757Z,17.04
2017-05-24T01:17:23.754Z,17.12
2017-05-24T01:18:23.443Z,17.04
2017-05-24T01:19:23.747Z,16.99
2017-05-24T01:20:23.741Z,16.95
2017-05-24T01:21:23.738Z,16.94
2017-05-24T01:22:23.737Z,17.02
2017-05-24T01:23:23.427Z,16.99
2017-05-24T01:24:23.122Z,16.99
2017-05-24T01:25:23.726Z,16.94
2017-05-24T01:26:23.724Z,16.94
2017-05-24T01:27:23.411Z,16.89
2017-05-24T01:28:23.416Z,16.87
2017-05-24T01:29:23.100Z,16.86
2017-05-24T01:30:23.710Z,16.89
2017-05-24T01:31:23.403Z,16.89
2017-05-24T01:32:23.396Z,16.86
2017-05-24T01:33:23.393Z,16.89
2017-05-24T01:34:23.695Z,16.89
2017-05-24T01:35:23.695Z,16.82
2017-05-24T01:36:23.696Z,16.83
2017-05-24T01:37:23.686Z,16.89
2017-05-24T01:38:23.692Z,16.86
2017-05-24T01:39:23.681Z,16.76
2017-05-24T01:40:23.066Z,16.87
2017-05-24T01:41:23.672Z,16.87
2017-05-24T01:42:23.671Z,16.92
2017-05-24T01:43:23.664Z,16.8
2017-05-24T01:44:23.676Z,16.84
2017-05-24T01:45:23.659Z,16.89
2017-05-24T01:46:23.658Z,16.92
2017-05-24T01:47:23.662Z,16.86
2017-05-24T01:48:23.658Z,16.92
2017-05-24T01:49:23.648Z,16.86
2017-05-24T01:50:23.642Z,16.91
2017-05-24T01:51:23.640Z,16.89
2017-05-24T01:52:23.638Z,16.94
2017-05-24T01:53:23.636Z,16.92
2017-05-24T01:54:23.640Z,16.87
2017-05-24T01:55:23.627Z,16.87
2017-05-24T01:56:23.623Z,16.89
2017-05-24T01:57:23.313Z,16.92
2017-05-24T01:58:23.315Z,16.89
2017-05-24T01:59:23.620Z,16.91
2017-05-24T02:00:23.608Z,16.89
2017-05-24T02:01:23.607Z,16.82
2017-05-24T02:02:23.607Z,16.73
2017-05-24T02:03:23.601Z,16.76
2017-05-24T02:04:23.601Z,16.74
2017-05-24T02:05:23.594Z,16.77
2017-05-24T02:06:23.595Z,16.74
2017-05-24T02:07:22.975Z,16.72
2017-05-24T02:08:23.282Z,16.72
2017-05-24T02:09:23.283Z,16.62
2017-05-24T02:10:23.273Z,16.64
2017-05-24T02:11:23.574Z,16.65
2017-05-24T02:12:23.265Z,16.62
2017-05-24T02:13:23.260Z,16.54
2017-05-24T02:14:23.567Z,16.54
2017-05-24T02:15:23.562Z,16.59
2017-05-24T02:16:23.256Z,16.55
2017-05-24T02:17:23.561Z,16.54
2017-05-24T02:18:23.549Z,16.5
2017-05-24T02:19:23.551Z,16.51
2017-05-24T02:20:23.235Z,16.54
2017-05-24T02:21:23.546Z,16.5
2017-05-24T02:22:23.537Z,16.51
2017-05-24T02:23:23.540Z,16.46
2017-05-24T02:24:23.227Z,16.5
2017-05-24T02:25:23.531Z,16.46
2017-05-24T02:26:23.531Z,16.57
2017-05-24T02:27:23.522Z,16.51
2017-05-24T02:28:23.528Z,16.59
2017-05-24T02:29:23.212Z,16.61
2017-05-24T02:30:23.514Z,16.59
2017-05-24T02:31:23.508Z,16.58
2017-05-24T02:32:23.506Z,16.62
2017-05-24T02:33:22.889Z,16.68
2017-05-24T02:34:23.192Z,16.62
2017-05-24T02:35:23.189Z,16.61
2017-05-24T02:36:23.498Z,16.66
2017-05-24T02:37:23.486Z,16.62
2017-05-24T02:38:23.487Z,16.72
2017-05-24T02:39:23.177Z,16.58
2017-05-24T02:40:23.476Z,16.62
2017-05-24T02:41:23.474Z,16.69
2017-05-24T02:42:23.473Z,16.69
2017-05-24T02:43:23.170Z,16.65
2017-05-24T02:44:23.467Z,16.66
2017-05-24T02:45:23.156Z,16.72
2017-05-24T02:46:23.460Z,16.65
2017-05-24T02:47:23.148Z,16.68
2017-05-24T02:48:23.450Z,16.68
2017-05-24T02:49:23.146Z,16.74
2017-05-24T02:50:23.138Z,16.66
2017-05-24T02:51:23.134Z,16.73
2017-05-24T02:52:23.442Z,16.74
2017-05-24T02:53:23.435Z,16.73
2017-05-24T02:54:23.432Z,16.68
2017-05-24T02:55:23.121Z,16.66
2017-05-24T02:56:23.423Z,16.72
2017-05-24T02:57:23.420Z,16.74
2017-05-24T02:58:23.416Z,16.69
2017-05-24T02:59:23.412Z,16.68
2017-05-24T03:00:23.410Z,16.66
2017-05-24T03:01:23.409Z,16.68
2017-05-24T03:02:23.406Z,16.66
2017-05-24T03:03:23.404Z,16.79
2017-05-24T03:04:23.397Z,16.79
2017-05-24T03:05:23.151Z,16.69
2017-05-24T03:06:23.390Z,16.74
2017-05-24T03:07:23.387Z,16.76
2017-05-24T03:08:23.390Z,16.74
2017-05-24T03:09:23.381Z,16.84
2017-05-24T03:10:23.074Z,16.79
2017-05-24T03:11:23.375Z,16.84
2017-05-24T03:12:23.373Z,16.83
2017-05-24T03:13:23.377Z,16.89
2017-05-24T03:14:23.364Z,16.91
2017-05-24T03:15:23.361Z,16.86
2017-05-24T03:16:23.355Z,16.87
2017-05-24T03:17:23.355Z,16.87
2017-05-24T03:18:23.349Z,16.95
2017-05-24T03:19:23.352Z,16.91
2017-05-24T03:20:23.039Z,16.95
2017-05-24T03:21:22.792Z,16.95
2017-05-24T03:22:22.725Z,16.99
2017-05-24T03:23:23.337Z,16.97
2017-05-24T03:24:23.330Z,16.97
2017-05-24T03:25:23.326Z,16.92
2017-05-24T03:26:23.324Z,16.98
2017-05-24T03:27:23.015Z,16.95
2017-05-24T03:28:23.318Z,17.04
2017-05-24T03:29:23.314Z,16.97
2017-05-24T03:30:23.308Z,16.94
2017-05-24T03:31:23.308Z,16.99
2017-05-24T03:32:23.306Z,16.98
2017-05-24T03:33:23.302Z,16.95
2017-05-24T03:34:23.304Z,16.94
2017-05-24T03:35:23.294Z,16.94
2017-05-24T03:36:22.985Z,16.97
2017-05-24T03:37:23.287Z,16.98
2017-05-24T03:38:22.979Z,17.02
2017-05-24T03:39:23.284Z,16.91
2017-05-24T03:40:23.274Z,16.95
2017-05-24T03:41:23.276Z,17.01
2017-05-24T03:42:23.269Z,16.95
2017-05-24T03:43:23.265Z,16.97
2017-05-24T03:44:23.269Z,17.1
2017-05-24T03:45:23.263Z,16.98
2017-05-24T03:46:23.258Z,17.1
2017-05-24T03:47:22.950Z,17.01
2017-05-24T03:48:22.948Z,17.1
2017-05-24T03:49:23.246Z,16.97
2017-05-24T03:50:23.242Z,17.05
2017-05-24T03:51:23.240Z,16.92
2017-05-24T03:52:23.239Z,16.97
2017-05-24T03:53:23.247Z,16.92
2017-05-24T03:54:23.233Z,16.97
2017-05-24T03:55:22.928Z,16.94
2017-05-24T03:56:23.227Z,16.94
2017-05-24T03:57:23.221Z,16.91
2017-05-24T03:58:23.219Z,16.92
2017-05-24T03:59:23.215Z,16.91
2017-05-24T04:00:23.210Z,16.86
2017-05-24T04:01:22.597Z,16.89
2017-05-24T04:02:23.207Z,16.86
2017-05-24T04:03:23.200Z,16.84
2017-05-24T04:04:23.200Z,16.82
2017-05-24T04:05:23.198Z,16.84
2017-05-24T04:06:22.888Z,16.91
2017-05-24T04:07:23.187Z,16.94
2017-05-24T04:08:23.181Z,16.87
2017-05-24T04:09:23.181Z,16.91
2017-05-24T04:10:23.181Z,16.91
2017-05-24T04:11:22.867Z,16.92
2017-05-24T04:12:22.861Z,16.87
2017-05-24T04:13:23.167Z,16.89
2017-05-24T04:14:23.167Z,16.89
2017-05-24T04:15:23.219Z,16.92
2017-05-24T04:16:22.848Z,16.86
2017-05-24T04:17:23.156Z,16.91
2017-05-24T04:18:23.154Z,16.86
2017-05-24T04:19:23.153Z,16.87
2017-05-24T04:20:23.141Z,16.87
2017-05-24T04:21:23.141Z,16.92
2017-05-24T04:22:23.138Z,16.86
2017-05-24T04:23:23.132Z,16.91
2017-05-24T04:24:22.826Z,16.91
2017-05-24T04:25:23.131Z,16.91
2017-05-24T04:26:23.124Z,16.89
2017-05-24T04:27:22.815Z,16.89
2017-05-24T04:28:23.118Z,16.94
2017-05-24T04:29:23.114Z,16.91
2017-05-24T04:30:22.496Z,16.92
2017-05-24T04:31:22.804Z,16.92
2017-05-24T04:32:22.797Z,16.89
2017-05-24T04:33:22.791Z,16.95
2017-05-24T04:34:22.789Z,16.91
2017-05-24T04:35:23.098Z,16.97
2017-05-24T04:36:23.091Z,16.92
2017-05-24T04:37:23.086Z,16.91
2017-05-24T04:38:22.777Z,16.95
2017-05-24T04:39:22.774Z,16.89
2017-05-24T04:40:23.078Z,17.02
2017-05-24T04:41:23.077Z,16.98
2017-05-24T04:42:23.066Z,16.94
2017-05-24T04:43:23.065Z,17.02
2017-05-24T04:44:23.066Z,17.09
2017-05-24T04:45:22.751Z,17.13
2017-05-24T04:46:22.750Z,17.13
2017-05-24T04:47:22.749Z,17.13
2017-05-24T04:48:23.050Z,17.16
2017-05-24T04:49:23.044Z,17.09
2017-05-24T04:50:22.739Z,17.17
2017-05-24T04:51:23.036Z,17.17
2017-05-24T04:52:23.034Z,17.13
2017-05-24T04:53:23.038Z,17.13
2017-05-24T04:54:23.031Z,17.12
2017-05-24T04:55:22.718Z,17.16
2017-05-24T04:56:22.714Z,17.19
2017-05-24T04:57:22.722Z,17.2
2017-05-24T04:58:23.014Z,17.31
2017-05-24T04:59:23.015Z,17.23
2017-05-24T05:00:23.009Z,17.24
2017-05-24T05:01:23.054Z,17.3
2017-05-24T05:02:22.695Z,17.32
2017-05-24T05:03:22.697Z,17.24
2017-05-24T05:04:22.999Z,17.28
2017-05-24T05:05:22.992Z,17.24
2017-05-24T05:06:22.989Z,17.23
2017-05-24T05:07:22.987Z,17.24
2017-05-24T05:08:22.678Z,17.28
2017-05-24T05:09:22.981Z,17.28
2017-05-24T05:10:22.365Z,17.32
2017-05-24T05:11:22.666Z,17.34
2017-05-24T05:12:22.661Z,17.37
2017-05-24T05:13:22.967Z,17.46
2017-05-24T05:14:22.970Z,17.46
2017-05-24T05:15:22.958Z,17.57
2017-05-24T05:16:22.954Z,17.53
2017-05-24T05:17:22.955Z,17.59
2017-05-24T05:18:22.341Z,17.66
2017-05-24T05:19:22.947Z,17.66
2017-05-24T05:20:22.943Z,17.52
2017-05-24T05:21:22.937Z,17.52
2017-05-24T05:22:22.934Z,17.68
2017-05-24T05:23:22.932Z,17.71
2017-05-24T05:24:22.620Z,17.66
2017-05-24T05:25:22.311Z,17.71
2017-05-24T05:26:22.924Z,17.75
2017-05-24T05:27:22.610Z,17.71
2017-05-24T05:28:22.610Z,17.76
2017-05-24T05:29:22.915Z,17.73
2017-05-24T05:30:22.608Z,17.65
2017-05-24T05:31:22.601Z,17.68
2017-05-24T05:32:22.902Z,17.66
2017-05-24T05:33:22.294Z,17.57
2017-05-24T05:34:22.898Z,17.53
2017-05-24T05:35:22.892Z,17.5
2017-05-24T05:36:22.586Z,17.59
2017-05-24T05:37:22.583Z,17.72
2017-05-24T05:38:22.891Z,17.69
2017-05-24T05:39:22.881Z,17.69
2017-05-24T05:40:22.879Z,17.72
2017-05-24T05:41:22.569Z,17.65
2017-05-24T05:42:22.872Z,17.65
2017-05-24T05:43:22.870Z,17.75
2017-05-24T05:44:22.559Z,17.72
2017-05-24T05:45:22.553Z,17.75
2017-05-24T05:46:22.863Z,17.9
2017-05-24T05:47:22.852Z,17.93
2017-05-24T05:48:22.851Z,17.86
2017-05-24T05:49:22.851Z,17.94
2017-05-24T05:50:22.545Z,17.95
2017-05-24T05:51:22.542Z,17.88
2017-05-24T05:52:22.837Z,17.9
2017-05-24T05:53:22.836Z,17.87
2017-05-24T05:54:22.833Z,17.9
2017-05-24T05:55:22.829Z,17.95
2017-05-24T05:56:22.826Z,18.06
2017-05-24T05:57:22.824Z,18.03
2017-05-24T05:58:22.822Z,18.15
2017-05-24T05:59:22.513Z,18.08
2017-05-24T06:00:22.508Z,18.02
2017-05-24T06:01:22.511Z,18.02
2017-05-24T06:02:22.811Z,18.11
2017-05-24T06:03:22.812Z,18.03
2017-05-24T06:04:22.800Z,18.02
2017-05-24T06:05:22.497Z,18.06
2017-05-24T06:06:22.491Z,18.03
2017-05-24T06:07:22.490Z,18.11
2017-05-24T06:08:22.485Z,18.13
2017-05-24T06:09:22.791Z,18.11
2017-05-24T06:10:22.783Z,18.16
2017-05-24T06:11:22.477Z,18.15
2017-05-24T06:12:22.472Z,18.08
2017-05-24T06:13:22.776Z,18.26
2017-05-24T06:14:22.470Z,18.24
2017-05-24T06:15:22.463Z,18.27
2017-05-24T06:16:22.466Z,18.37
2017-05-24T06:17:22.456Z,18.39
2017-05-24T06:18:22.762Z,18.41
2017-05-24T06:19:22.762Z,18.41
2017-05-24T06:20:22.450Z,18.34
2017-05-24T06:21:22.448Z,18.33
2017-05-24T06:22:22.138Z,18.45
2017-05-24T06:23:22.451Z,18.36
2017-05-24T06:24:22.440Z,18.41
2017-05-24T06:25:22.434Z,18.43
2017-05-24T06:26:22.430Z,18.33
2017-05-24T06:27:22.432Z,18.34
2017-05-24T06:28:22.734Z,18.26
2017-05-24T06:29:22.422Z,18.43
2017-05-24T06:30:22.723Z,18.31
2017-05-24T06:31:22.114Z,18.33
2017-05-24T06:32:22.723Z,18.3
2017-05-24T06:33:22.411Z,18.39
2017-05-24T06:34:22.409Z,18.43
2017-05-24T06:35:22.712Z,18.43
2017-05-24T06:36:22.094Z,18.51
2017-05-24T06:37:22.094Z,18.52
2017-05-24T06:38:22.093Z,18.52
2017-05-24T06:39:22.699Z,18.53
2017-05-24T06:40:22.697Z,18.52
2017-05-24T06:41:22.693Z,18.6
2017-05-24T06:42:22.385Z,18.57
2017-05-24T06:43:22.689Z,18.64
2017-05-24T06:44:22.378Z,18.49
2017-05-24T06:45:22.576Z,18.63
2017-05-24T06:46:22.704Z,18.7
2017-05-24T06:47:22.675Z,18.78
2017-05-24T06:48:22.675Z,18.86
2017-05-24T06:49:22.672Z,18.83
2017-05-24T06:50:22.668Z,18.91
2017-05-24T06:51:22.362Z,18.94
2017-05-24T06:52:22.355Z,18.92
2017-05-24T06:53:22.352Z,18.89
2017-05-24T06:54:22.656Z,18.88
2017-05-24T06:55:22.345Z,18.91
2017-05-24T06:56:22.342Z,19.04
2017-05-24T06:57:22.341Z,19.15
2017-05-24T06:58:22.336Z,19.12
2017-05-24T06:59:22.637Z,19.2
2017-05-24T07:00:22.642Z,19.23
2017-05-24T07:01:22.633Z,19.22
2017-05-24T07:02:22.019Z,19.22
2017-05-24T07:03:22.623Z,19.35
2017-05-24T07:04:22.319Z,19.41
2017-05-24T07:05:22.626Z,19.34
2017-05-24T07:06:22.314Z,19.38
2017-05-24T07:07:22.618Z,19.42
2017-05-24T07:08:22.614Z,19.47
2017-05-24T07:09:22.611Z,19.53
2017-05-24T07:10:22.608Z,19.59
2017-05-24T07:11:22.604Z,19.77
2017-05-24T07:12:22.296Z,19.84
2017-05-24T07:13:22.352Z,19.89
2017-05-24T07:14:22.299Z,19.94
2017-05-24T07:15:22.595Z,20.03
2017-05-24T07:16:22.597Z,20.04
2017-05-24T07:17:22.589Z,20.04
2017-05-24T07:18:22.287Z,20.03
2017-05-24T07:19:22.280Z,20.15
2017-05-24T07:20:22.582Z,20.34
2017-05-24T07:21:21.967Z,20.78
2017-05-24T07:22:22.272Z,21.38
2017-05-24T07:23:21.965Z,22.37
2017-05-24T07:24:22.269Z,23.4
2017-05-24T07:25:22.566Z,24.1
2017-05-24T07:26:21.957Z,24.63
2017-05-24T07:27:22.565Z,24.86
2017-05-24T07:28:21.959Z,25.25
2017-05-24T07:29:22.257Z,25.36
2017-05-24T07:30:22.557Z,25.34
2017-05-24T07:31:22.252Z,25.4
2017-05-24T07:32:21.943Z,25.66
2017-05-24T07:33:22.247Z,26.08
2017-05-24T07:34:22.248Z,26.55
2017-05-24T07:35:22.242Z,27.03
2017-05-24T07:36:21.929Z,27.23
2017-05-24T07:37:22.547Z,27.1
2017-05-24T07:38:22.236Z,26.81
2017-05-24T07:39:22.238Z,26.6
2017-05-24T07:40:22.540Z,26.37
2017-05-24T07:41:22.532Z,26.22
2017-05-24T07:42:22.531Z,26.1
2017-05-24T07:43:22.530Z,26.06
2017-05-24T07:44:22.223Z,26.03
2017-05-24T07:45:22.528Z,25.77
2017-05-24T07:46:22.527Z,25.31
2017-05-24T07:47:22.529Z,24.99
2017-05-24T07:48:22.523Z,24.85
2017-05-24T07:49:22.519Z,24.69
2017-05-24T07:50:22.518Z,24.65
2017-05-24T07:51:22.515Z,24.68
2017-05-24T07:52:22.212Z,24.93
2017-05-24T07:53:21.904Z,25.39
2017-05-24T07:54:22.515Z,26.1
2017-05-24T07:55:22.202Z,26.74
2017-05-24T07:56:22.507Z,27.3
2017-05-24T07:57:22.507Z,28.03
2017-05-24T07:58:22.506Z,28.55
2017-05-24T07:59:22.509Z,29.21
2017-05-24T08:00:22.501Z,29.3
2017-05-24T08:01:22.500Z,29.2
2017-05-24T08:02:22.498Z,28.62
2017-05-24T08:03:22.188Z,27.9
2017-05-24T08:04:22.190Z,27.6
2017-05-24T08:05:22.187Z,27.29
2017-05-24T08:06:22.239Z,27.04
2017-05-24T08:07:22.183Z,26.88
2017-05-24T08:08:22.488Z,26.83
2017-05-24T08:09:22.190Z,26.71
2017-05-24T08:10:22.485Z,26.79
2017-05-24T08:11:22.178Z,26.93
2017-05-24T08:12:22.486Z,27.07
2017-05-24T08:13:22.174Z,27.22
2017-05-24T08:14:22.484Z,27.26
2017-05-24T08:15:22.476Z,27.18
2017-05-24T08:16:22.173Z,27.15
2017-05-24T08:17:22.479Z,27.03
2017-05-24T08:18:22.167Z,26.76
2017-05-24T08:19:22.475Z,26.71
2017-05-24T08:20:22.471Z,26.45
2017-05-24T08:21:22.469Z,26.27
2017-05-24T08:22:22.467Z,25.99
2017-05-24T08:23:22.161Z,25.71
2017-05-24T08:24:22.157Z,25.49
2017-05-24T08:25:22.461Z,25.3
2017-05-24T08:26:22.459Z,25.04
2017-05-24T08:27:22.461Z,24.79
2017-05-24T08:28:22.463Z,24.62
2017-05-24T08:29:22.454Z,24.48
2017-05-24T08:30:22.146Z,24.31
2017-05-24T08:31:22.453Z,24.26
2017-05-24T08:32:22.177Z,24.11
2017-05-24T08:33:22.148Z,24.28
2017-05-24T08:34:22.451Z,24.26
2017-05-24T08:35:22.138Z,24.38
2017-05-24T08:36:22.141Z,24.44
2017-05-24T08:37:22.440Z,24.53
2017-05-24T08:38:22.496Z,24.56
2017-05-24T08:39:22.441Z,24.55
2017-05-24T08:40:22.443Z,24.51
2017-05-24T08:41:22.131Z,24.53
2017-05-24T08:42:22.136Z,24.65
2017-05-24T08:43:22.433Z,24.81
2017-05-24T08:44:22.437Z,24.71
2017-05-24T08:45:22.427Z,24.78
2017-05-24T08:46:22.120Z,24.75
2017-05-24T08:47:22.119Z,24.81
2017-05-24T08:48:22.430Z,24.77
2017-05-24T08:49:22.424Z,24.74
2017-05-24T08:50:22.427Z,24.65
2017-05-24T08:51:22.419Z,24.68
2017-05-24T08:52:22.432Z,24.65
2017-05-24T08:53:22.417Z,24.66
2017-05-24T08:54:22.416Z,24.65
2017-05-24T08:55:22.415Z,24.56
2017-05-24T08:56:22.106Z,24.55
2017-05-24T08:57:22.411Z,24.58
2017-05-24T08:58:22.153Z,24.53
2017-05-24T08:59:22.101Z,24.62
2017-05-24T09:00:22.477Z,24.62
2017-05-24T09:01:22.407Z,24.53
2017-05-24T09:02:22.403Z,24.4
2017-05-24T09:03:22.398Z,24.25
2017-05-24T09:04:22.398Z,24.21
2017-05-24T09:05:22.397Z,24.06
2017-05-24T09:06:22.095Z,24.03
2017-05-24T09:07:22.150Z,23.95
2017-05-24T09:08:22.390Z,23.86
2017-05-24T09:09:22.392Z,23.76
2017-05-24T09:10:22.394Z,23.71
2017-05-24T09:11:22.082Z,23.58
2017-05-24T09:12:22.387Z,23.4
2017-05-24T09:13:22.432Z,23.48
2017-05-24T09:14:22.387Z,23.32
2017-05-24T09:15:22.378Z,23.25
2017-05-24T09:16:22.074Z,23.18
2017-05-24T09:17:22.375Z,23.11
2017-05-24T09:18:22.371Z,23.01
2017-05-24T09:19:22.373Z,22.95
2017-05-24T09:20:22.373Z,22.93
2017-05-24T09:21:22.071Z,22.83
2017-05-24T09:22:22.370Z,22.84
2017-05-24T09:23:22.370Z,22.73
2017-05-24T09:24:22.365Z,22.81
2017-05-24T09:25:22.359Z,22.73
2017-05-24T09:26:22.357Z,22.68
2017-05-24T09:27:22.407Z,22.68
2017-05-24T09:28:22.400Z,22.61
2017-05-24T09:29:22.362Z,22.61
2017-05-24T09:30:22.347Z,22.52
2017-05-24T09:31:22.352Z,22.59
2017-05-24T09:32:22.038Z,22.62
2017-05-24T09:33:22.341Z,22.67
2017-05-24T09:34:22.341Z,22.76
2017-05-24T09:35:22.336Z,22.73
2017-05-24T09:36:22.033Z,22.67
2017-05-24T09:37:22.331Z,22.74
2017-05-24T09:38:22.026Z,22.7
2017-05-24T09:39:22.027Z,22.8
2017-05-24T09:40:22.324Z,22.77
2017-05-24T09:41:22.322Z,22.81
2017-05-24T09:42:22.321Z,22.78
2017-05-24T09:43:22.319Z,22.73
2017-05-24T09:44:22.314Z,22.89
2017-05-24T09:45:22.315Z,22.74
2017-05-24T09:46:22.311Z,22.71
2017-05-24T09:47:22.008Z,22.76
2017-05-24T09:48:22.003Z,22.73
2017-05-24T09:49:22.307Z,22.77
2017-05-24T09:50:22.301Z,22.84
2017-05-24T09:51:22.304Z,22.88
2017-05-24T09:52:22.295Z,22.86
2017-05-24T09:53:22.294Z,22.91
2017-05-24T09:54:22.296Z,22.88
2017-05-24T09:55:22.289Z,22.86
2017-05-24T09:56:22.287Z,22.93
2017-05-24T09:57:22.285Z,23.02
2017-05-24T09:58:22.281Z,22.89
2017-05-24T09:59:22.285Z,22.89
2017-05-24T10:00:22.277Z,22.84
2017-05-24T10:01:21.971Z,22.89
2017-05-24T10:02:22.274Z,22.86
2017-05-24T10:03:22.269Z,22.92
2017-05-24T10:04:22.318Z,22.95
2017-05-24T10:05:22.269Z,23.04
2017-05-24T10:06:21.956Z,22.93
2017-05-24T10:07:21.648Z,23.04
2017-05-24T10:08:21.954Z,23.02
2017-05-24T10:09:21.948Z,22.99
2017-05-24T10:10:22.250Z,22.83
2017-05-24T10:11:22.248Z,22.88
2017-05-24T10:12:22.249Z,22.95
2017-05-24T10:13:22.245Z,22.88
2017-05-24T10:14:22.291Z,22.95
2017-05-24T10:15:22.240Z,23.02
2017-05-24T10:16:21.937Z,23.08
2017-05-24T10:17:22.238Z,23.06
2017-05-24T10:18:22.239Z,23.14
2017-05-24T10:19:21.940Z,23.13
2017-05-24T10:20:22.230Z,23.06
2017-05-24T10:21:22.231Z,22.93
2017-05-24T10:22:22.225Z,22.91
2017-05-24T10:23:22.223Z,22.98
2017-05-24T10:24:21.964Z,23.06
2017-05-24T10:25:21.912Z,23.11
2017-05-24T10:26:22.217Z,23.26
2017-05-24T10:27:22.212Z,23.47
2017-05-24T10:28:22.218Z,23.39
2017-05-24T10:29:22.211Z,23.52
2017-05-24T10:30:21.598Z,23.56
2017-05-24T10:31:21.589Z,23.63
2017-05-24T10:32:22.210Z,23.67
2017-05-24T10:33:21.891Z,23.74
2017-05-24T10:34:21.953Z,23.74
2017-05-24T10:35:21.890Z,23.62
2017-05-24T10:36:22.195Z,23.69
2017-05-24T10:37:22.191Z,23.66
2017-05-24T10:38:21.888Z,23.7
2017-05-24T10:39:22.245Z,23.73
2017-05-24T10:40:22.191Z,23.59
2017-05-24T10:41:22.180Z,23.52
2017-05-24T10:42:22.179Z,23.42
2017-05-24T10:43:22.178Z,23.33
2017-05-24T10:44:22.177Z,23.17
2017-05-24T10:45:22.175Z,23.17
2017-05-24T10:46:22.171Z,23.17
2017-05-24T10:47:22.172Z,23.33
2017-05-24T10:48:22.170Z,23.37
2017-05-24T10:49:21.911Z,23.64
2017-05-24T10:50:22.162Z,23.74
2017-05-24T10:51:22.162Z,23.81
2017-05-24T10:52:22.160Z,23.77
2017-05-24T10:53:22.157Z,23.59
2017-05-24T10:54:22.152Z,23.64
2017-05-24T10:55:21.847Z,23.59
2017-05-24T10:56:22.152Z,23.58
2017-05-24T10:57:22.150Z,23.62
2017-05-24T10:58:22.142Z,23.45
2017-05-24T10:59:21.840Z,23.59
2017-05-24T11:00:21.832Z,23.56
2017-05-24T11:01:21.831Z,23.56
2017-05-24T11:02:22.137Z,23.52
2017-05-24T11:03:22.147Z,23.58
2017-05-24T11:04:22.184Z,23.52
2017-05-24T11:05:21.822Z,23.55
2017-05-24T11:06:22.130Z,23.47
2017-05-24T11:07:21.820Z,23.42
2017-05-24T11:08:21.821Z,23.54
2017-05-24T11:09:22.123Z,23.4
2017-05-24T11:10:22.118Z,23.42
2017-05-24T11:11:22.111Z,23.39
2017-05-24T11:12:22.110Z,23.39
2017-05-24T11:13:22.116Z,23.37
2017-05-24T11:14:22.164Z,23.42
2017-05-24T11:15:22.105Z,23.37
2017-05-24T11:16:22.103Z,23.49
2017-05-24T11:17:21.794Z,23.44
2017-05-24T11:18:22.103Z,23.44
2017-05-24T11:19:22.091Z,23.48
2017-05-24T11:20:22.093Z,23.52
2017-05-24T11:21:22.096Z,23.52
2017-05-24T11:22:22.088Z,23.62
2017-05-24T11:23:22.088Z,23.58
2017-05-24T11:24:22.086Z,23.63
2017-05-24T11:25:21.777Z,23.69
2017-05-24T11:26:22.084Z,23.7
2017-05-24T11:27:21.770Z,23.77
2017-05-24T11:28:22.079Z,23.73
2017-05-24T11:29:22.074Z,23.69
2017-05-24T11:30:21.764Z,23.76
2017-05-24T11:31:22.070Z,23.67
2017-05-24T11:32:22.070Z,23.74
2017-05-24T11:33:22.065Z,23.77
2017-05-24T11:34:22.068Z,23.94
2017-05-24T11:35:21.757Z,23.89
2017-05-24T11:36:21.751Z,23.85
2017-05-24T11:37:22.057Z,23.95
2017-05-24T11:38:22.054Z,23.92
2017-05-24T11:39:22.051Z,24
2017-05-24T11:40:22.047Z,23.95
2017-05-24T11:41:22.044Z,24
2017-05-24T11:42:22.043Z,23.99
2017-05-24T11:43:22.039Z,23.89
2017-05-24T11:44:22.046Z,23.95
2017-05-24T11:45:22.039Z,24.04
2017-05-24T11:46:21.489Z,23.96
2017-05-24T11:47:22.031Z,24.04
2017-05-24T11:48:22.032Z,24.11
2017-05-24T11:49:22.028Z,24.21
2017-05-24T11:50:21.715Z,24.21
2017-05-24T11:51:22.022Z,24.11
2017-05-24T11:52:22.019Z,24.14
2017-05-24T11:53:21.713Z,24.07
2017-05-24T11:54:21.714Z,24.07
2017-05-24T11:55:21.710Z,24.09
2017-05-24T11:56:22.009Z,24.16
2017-05-24T11:57:22.013Z,24.22
2017-05-24T11:58:22.011Z,24.47
2017-05-24T11:59:21.698Z,24.5
2017-05-24T12:00:22.004Z,24.56
2017-05-24T12:01:21.697Z,24.63
2017-05-24T12:02:22.201Z,24.61
2017-05-24T12:03:22.000Z,24.5
2017-05-24T12:04:21.994Z,24.65
2017-05-24T12:05:21.993Z,24.51
2017-05-24T12:06:21.991Z,24.37
2017-05-24T12:07:21.687Z,24.41
2017-05-24T12:08:21.681Z,24.37
2017-05-24T12:09:21.375Z,24.41
2017-05-24T12:10:21.675Z,24.58
2017-05-24T12:11:21.976Z,24.59
2017-05-24T12:12:21.983Z,24.55
2017-05-24T12:13:21.667Z,24.62
2017-05-24T12:14:21.976Z,24.78
2017-05-24T12:15:21.973Z,24.89
2017-05-24T12:16:21.660Z,24.94
2017-05-24T12:17:21.963Z,24.92
2017-05-24T12:18:21.966Z,24.85
2017-05-24T12:19:21.354Z,24.74
2017-05-24T12:20:21.352Z,24.77
2017-05-24T12:21:21.655Z,24.75
2017-05-24T12:22:21.958Z,24.75
2017-05-24T12:23:21.957Z,24.75
2017-05-24T12:24:21.962Z,24.51
2017-05-24T12:25:21.950Z,24.41
2017-05-24T12:26:21.950Z,24.4
2017-05-24T12:27:21.641Z,24.38
2017-05-24T12:28:21.946Z,24.48
2017-05-24T12:29:21.638Z,24.51
2017-05-24T12:30:21.633Z,24.47
2017-05-24T12:31:21.937Z,24.61
2017-05-24T12:32:21.628Z,24.66
2017-05-24T12:33:21.935Z,24.74
2017-05-24T12:34:21.941Z,24.78
2017-05-24T12:35:21.985Z,24.79
2017-05-24T12:36:21.929Z,24.96
2017-05-24T12:37:21.319Z,25.03
2017-05-24T12:38:21.929Z,25.14
2017-05-24T12:39:21.934Z,25.26
2017-05-24T12:40:21.926Z,25.15
2017-05-24T12:41:21.612Z,25.3
2017-05-24T12:42:21.921Z,25.34
2017-05-24T12:43:21.916Z,25.24
2017-05-24T12:44:21.614Z,25.24
2017-05-24T12:45:21.918Z,25.14
2017-05-24T12:46:21.910Z,24.85
2017-05-24T12:47:21.606Z,24.75
2017-05-24T12:48:21.911Z,24.77
2017-05-24T12:49:21.908Z,24.62
2017-05-24T12:50:21.291Z,24.55
2017-05-24T12:51:21.900Z,24.48
2017-05-24T12:52:21.895Z,24.48
2017-05-24T12:53:21.901Z,24.48
2017-05-24T12:54:21.898Z,24.46